createdAt,value
2022-08-11T00:01:27.561Z,52.16
2022-08-11T00:03:58.282Z,52.15
2022-08-11T00:06:37.164Z,52.33
2022-08-11T00:09:09.335Z,52.29
2022-08-11T00:11:40.914Z,52.10
2022-08-11T00:14:37.130Z,53.08
2022-08-11T00:17:14.418Z,53.08
2022-08-11T00:20:12.273Z,52.80
2022-08-11T00:22:34.876Z,53.00
2022-08-11T00:25:28.565Z,52.81
2022-08-11T00:27:55.450Z,53.17
2022-08-11T00:30:22.584Z,53.22
2022-08-11T00:32:59.093Z,53.40
2022-08-11T00:35:53.702Z,53.18
2022-08-11T00:38:26.118Z,53.36
2022-08-11T00:41:05.150Z,53.49
2022-08-11T00:44:22.948Z,53.73
2022-08-11T00:47:11.546Z,53.58
2022-08-11T00:50:09.296Z,54.38
2022-08-11T00:52:51.289Z,55.44
2022-08-11T00:55:58.800Z,55.26
2022-08-11T00:58:43.902Z,56.63
2022-08-11T01:01:17.891Z,55.13
2022-08-11T01:04:11.604Z,55.93
2022-08-11T01:06:50.355Z,56.65
2022-08-11T01:09:53.158Z,57.42
2022-08-11T01:12:28.603Z,56.78
2022-08-11T01:15:25.990Z,56.54
2022-08-11T01:18:29.953Z,56.79
2022-08-11T01:21:36.925Z,57.54
2022-08-11T01:24:51.505Z,58.90
2022-08-11T01:27:45.181Z,57.38
2022-08-11T01:30:37.503Z,57.32
2022-08-11T01:33:34.930Z,58.18
2022-08-11T01:36:10.876Z,57.65
2022-08-11T01:39:11.203Z,58.04
2022-08-11T01:42:34.081Z,59.39
2022-08-11T01:45:50.250Z,59.46
2022-08-11T01:48:30.154Z,60.23
2022-08-11T01:51:47.116Z,60.24
2022-08-11T01:55:02.531Z,59.99
2022-08-11T01:57:44.827Z,59.82
2022-08-11T02:00:20.261Z,60.56
2022-08-11T02:03:07.013Z,60.10
2022-08-11T02:06:01.628Z,60.13
2022-08-11T02:08:50.364Z,60.34
2022-08-11T02:11:35.861Z,61.50
2022-08-11T02:15:05.168Z,62.00
2022-08-11T02:17:49.421Z,60.44
2022-08-11T02:20:49.497Z,60.70
2022-08-11T02:24:04.319Z,61.21
2022-08-11T02:26:42.494Z,62.59
2022-08-11T02:29:46.212Z,62.95
2022-08-11T02:32:39.532Z,60.29
2022-08-11T02:35:28.928Z,61.92
2022-08-11T02:37:58.556Z,61.44
2022-08-11T02:40:46.059Z,61.64
2022-08-11T02:43:31.957Z,61.64
2022-08-11T02:46:19.364Z,62.34
2022-08-11T02:49:23.137Z,61.79
2022-08-11T02:52:17.904Z,61.34
2022-08-11T02:55:56.191Z,61.46
2022-08-11T02:58:22.024Z,61.53
2022-08-11T03:01:07.041Z,62.02
2022-08-11T03:03:53.124Z,62.31
2022-08-11T03:06:31.629Z,62.35
2022-08-11T03:09:19.583Z,62.68
2022-08-11T03:12:21.056Z,62.32
2022-08-11T03:15:31.256Z,62.48
2022-08-11T03:18:25.529Z,63.07
2022-08-11T03:21:06.949Z,63.22
2022-08-11T03:23:50.247Z,63.97
2022-08-11T03:26:33.724Z,63.83
2022-08-11T03:29:25.193Z,64.25
2022-08-11T03:33:31.162Z,64.71
2022-08-11T03:36:57.606Z,65.31
2022-08-11T03:39:32.476Z,63.47
2022-08-11T03:42:27.401Z,63.69
2022-08-11T03:45:28.818Z,64.42
2022-08-11T03:48:39.638Z,63.87
2022-08-11T03:51:25.542Z,64.63
2022-08-11T03:54:19.607Z,65.04
2022-08-11T03:57:21.528Z,64.86
2022-08-11T04:00:14.895Z,63.96
2022-08-11T04:03:31.210Z,63.84
2022-08-11T04:06:32.251Z,63.87
2022-08-11T04:09:59.036Z,65.39
2022-08-11T04:12:58.704Z,64.85
2022-08-11T04:16:16.540Z,64.30
2022-08-11T04:18:52.596Z,64.63
2022-08-11T04:22:15.650Z,67.51
2022-08-11T04:25:25.221Z,66.29
2022-08-11T04:28:29.746Z,65.47
2022-08-11T04:31:14.710Z,65.13
2022-08-11T04:34:28.876Z,65.91
2022-08-11T04:37:36.406Z,65.45
2022-08-11T04:40:39.621Z,65.73
2022-08-11T04:44:17.663Z,67.54
2022-08-11T04:48:01.898Z,67.84
2022-08-11T04:51:40.578Z,68.78
2022-08-11T04:55:24.587Z,69.83
2022-08-11T04:58:57.304Z,68.44
2022-08-11T05:01:56.127Z,68.78
2022-08-11T05:04:50.597Z,67.69
2022-08-11T05:08:04.137Z,68.80
2022-08-11T05:11:15.339Z,68.40
2022-08-11T05:14:04.179Z,68.37
2022-08-11T05:17:12.834Z,69.08
2022-08-11T05:20:04.177Z,67.54
2022-08-11T05:22:50.812Z,67.61
2022-08-11T05:26:46.877Z,67.08
2022-08-11T05:29:08.271Z,66.84
2022-08-11T05:32:15.769Z,66.20
2022-08-11T05:34:55.440Z,64.36
2022-08-11T05:37:33.326Z,62.92
2022-08-11T05:40:31.933Z,61.63
2022-08-11T05:43:32.267Z,60.02
2022-08-11T05:46:25.834Z,58.92
2022-08-11T05:49:12.137Z,58.16
2022-08-11T05:52:04.929Z,56.98
2022-08-11T05:54:54.314Z,55.76
2022-08-11T05:57:39.532Z,54.93
2022-08-11T06:00:15.452Z,54.27
2022-08-11T06:02:45.116Z,53.50
2022-08-11T06:05:14.104Z,52.84
2022-08-11T06:07:47.181Z,52.18
2022-08-11T06:10:38.516Z,51.86
2022-08-11T06:13:08.083Z,51.58
2022-08-11T06:15:46.003Z,51.11
2022-08-11T06:18:14.467Z,51.38
2022-08-11T06:20:52.583Z,52.15
2022-08-11T06:23:25.766Z,52.32
2022-08-11T06:25:56.126Z,52.00
2022-08-11T06:28:36.691Z,51.69
2022-08-11T06:31:17.772Z,51.19
2022-08-11T06:33:50.755Z,49.78
2022-08-11T06:36:38.804Z,49.05
2022-08-11T06:39:39.305Z,48.62
2022-08-11T06:42:13.716Z,48.97
2022-08-11T06:44:45.041Z,48.93
2022-08-11T06:47:16.252Z,48.67
2022-08-11T06:50:07.157Z,48.36
2022-08-11T06:52:37.088Z,48.13
2022-08-11T06:55:57.639Z,47.50
2022-08-11T06:58:50.762Z,47.69
2022-08-11T07:01:38.623Z,47.30
2022-08-11T07:04:09.637Z,47.62
2022-08-11T07:07:35.910Z,47.66
2022-08-11T07:10:47.292Z,47.66
2022-08-11T07:13:44.383Z,47.64
2022-08-11T07:16:26.437Z,48.18
2022-08-11T07:19:20.385Z,48.71
2022-08-11T07:22:07.527Z,49.21
2022-08-11T07:25:03.535Z,49.34
2022-08-11T07:28:01.841Z,49.41
2022-08-11T07:30:30.460Z,49.45
2022-08-11T07:33:01.471Z,48.53
2022-08-11T07:35:39.920Z,48.98
2022-08-11T07:38:18.169Z,48.97
2022-08-11T07:40:50.029Z,48.72
2022-08-11T07:43:17.398Z,48.47
2022-08-11T07:46:05.390Z,48.01
2022-08-11T07:48:52.565Z,47.96
2022-08-11T07:51:41.415Z,47.96
2022-08-11T07:54:16.797Z,47.39
2022-08-11T07:56:54.850Z,47.65
2022-08-11T07:59:59.911Z,47.52
2022-08-11T08:02:50.875Z,46.95
2022-08-11T08:05:37.588Z,46.46
2022-08-11T08:08:24.521Z,46.23
2022-08-11T08:11:11.313Z,45.86
2022-08-11T08:13:57.382Z,45.43
2022-08-11T08:16:43.624Z,44.83
2022-08-11T08:19:16.628Z,44.17
2022-08-11T08:21:45.859Z,44.37
2022-08-11T08:24:14.312Z,43.97
2022-08-11T08:26:59.220Z,43.27
2022-08-11T08:30:07.998Z,43.23
2022-08-11T08:32:40.057Z,42.17
2022-08-11T08:35:10.842Z,42.43
2022-08-11T08:37:45.614Z,41.13
2022-08-11T08:40:14.902Z,41.17
2022-08-11T08:42:56.721Z,39.61
2022-08-11T08:45:27.472Z,40.02
2022-08-11T08:48:06.342Z,38.03
2022-08-11T08:50:55.657Z,38.97
2022-08-11T08:53:31.155Z,38.61
2022-08-11T08:56:01.564Z,37.25
2022-08-11T08:58:30.817Z,36.61
2022-08-11T09:01:00.690Z,35.63
2022-08-11T09:04:05.240Z,36.36
2022-08-11T09:06:17.361Z,36.26
2022-08-11T09:08:46.056Z,35.99
2022-08-11T09:11:35.355Z,36.29
2022-08-11T09:14:05.601Z,35.36
2022-08-11T09:16:35.160Z,35.07
2022-08-11T09:19:03.274Z,35.54
2022-08-11T09:21:44.573Z,34.87
2022-08-11T09:24:36.642Z,35.20
2022-08-11T09:27:07.820Z,35.04
2022-08-11T09:29:36.122Z,35.27
2022-08-11T09:32:03.505Z,35.25
2022-08-11T09:34:31.240Z,34.95
2022-08-11T09:37:54.877Z,34.75
2022-08-11T09:40:27.265Z,34.46
2022-08-11T09:43:15.789Z,34.42
2022-08-11T09:45:51.690Z,34.17
2022-08-11T09:48:24.664Z,34.62
2022-08-11T09:50:56.068Z,34.69
2022-08-11T09:53:35.811Z,34.85
2022-08-11T09:56:29.001Z,34.33
2022-08-11T09:58:56.109Z,33.99
2022-08-11T10:01:30.417Z,34.64
2022-08-11T10:04:07.832Z,34.99
2022-08-11T10:06:56.597Z,34.82
2022-08-11T10:09:25.792Z,34.88
2022-08-11T10:11:59.646Z,34.33
2022-08-11T10:14:47.016Z,34.42
2022-08-11T10:17:17.201Z,34.86
2022-08-11T10:20:04.124Z,34.42
2022-08-11T10:22:53.160Z,33.84
2022-08-11T10:25:40.562Z,33.79
2022-08-11T10:28:33.015Z,33.79
2022-08-11T10:31:16.898Z,33.94
2022-08-11T10:34:01.757Z,33.71
2022-08-11T10:36:45.267Z,33.82
2022-08-11T10:39:18.031Z,33.49
2022-08-11T10:42:09.592Z,34.00
2022-08-11T10:44:46.368Z,33.30
2022-08-11T10:47:34.561Z,32.71
2022-08-11T10:50:30.679Z,32.68
2022-08-11T10:53:18.827Z,32.42
2022-08-11T10:56:06.137Z,31.42
2022-08-11T10:58:52.326Z,31.23
2022-08-11T11:01:29.242Z,31.22
2022-08-11T11:04:05.941Z,30.40
2022-08-11T11:06:35.265Z,29.75
2022-08-11T11:09:13.714Z,28.96
2022-08-11T11:12:08.485Z,28.63
2022-08-11T11:14:58.990Z,28.03
2022-08-11T11:18:09.575Z,27.33
2022-08-11T11:20:50.952Z,26.75
2022-08-11T11:23:47.500Z,27.24
2022-08-11T11:26:32.350Z,27.97
2022-08-11T11:29:30.123Z,27.79
2022-08-11T11:32:19.131Z,27.32
2022-08-11T11:35:26.855Z,27.38
2022-08-11T11:38:03.439Z,27.01
2022-08-11T11:40:33.282Z,26.40
2022-08-11T11:43:01.575Z,26.20
2022-08-11T11:45:29.019Z,26.21
2022-08-11T11:47:59.737Z,26.47
2022-08-11T11:50:32.911Z,25.88
2022-08-11T11:53:04.545Z,26.33
2022-08-11T11:55:32.133Z,26.20
2022-08-11T11:58:23.244Z,26.27
2022-08-11T12:01:11.601Z,26.27
2022-08-11T12:03:40.865Z,26.06
2022-08-11T12:06:09.798Z,26.10
2022-08-11T12:08:38.043Z,26.00
2022-08-11T12:11:28.685Z,25.55
2022-08-11T12:13:59.786Z,26.05
2022-08-11T12:16:35.698Z,26.31
2022-08-11T12:19:13.665Z,25.73
2022-08-11T12:22:01.249Z,25.57
2022-08-11T12:24:49.284Z,25.79
2022-08-11T12:27:25.306Z,25.46
2022-08-11T12:30:08.709Z,25.00
2022-08-11T12:32:39.246Z,25.34
2022-08-11T12:35:08.157Z,25.32
2022-08-11T12:37:45.704Z,25.41
2022-08-11T12:41:03.599Z,25.64
2022-08-11T12:43:56.894Z,25.94
2022-08-11T12:46:33.495Z,25.45
2022-08-11T12:49:45.503Z,24.58
2022-08-11T12:52:25.926Z,24.42
2022-08-11T12:55:34.346Z,24.61
2022-08-11T12:58:17.382Z,24.14
2022-08-11T13:01:04.530Z,24.53
2022-08-11T13:03:56.720Z,24.91
2022-08-11T13:06:25.641Z,24.71
2022-08-11T13:08:55.753Z,24.59
2022-08-11T13:11:55.584Z,24.32
2022-08-11T13:14:26.337Z,24.40
2022-08-11T13:17:12.457Z,24.23
2022-08-11T13:19:47.489Z,23.89
2022-08-11T13:22:19.328Z,24.29
2022-08-11T13:24:46.786Z,24.11
2022-08-11T13:27:18.052Z,23.92
2022-08-11T13:29:47.003Z,23.97
2022-08-11T13:32:16.488Z,23.90
2022-08-11T13:34:44.508Z,23.89
2022-08-11T13:37:14.509Z,23.75
2022-08-11T13:39:48.566Z,23.81
2022-08-11T13:42:20.327Z,24.28
2022-08-11T13:44:48.459Z,23.70
2022-08-11T13:47:16.587Z,23.68
2022-08-11T13:49:45.189Z,23.74
2022-08-11T13:52:17.178Z,23.40
2022-08-11T13:54:48.499Z,23.88
2022-08-11T13:58:09.115Z,23.57
2022-08-11T14:00:24.936Z,22.86
2022-08-11T14:02:57.425Z,22.68
2022-08-11T14:05:40.655Z,23.00
2022-08-11T14:08:37.836Z,22.08
2022-08-11T14:12:21.297Z,22.37
2022-08-11T14:14:23.305Z,22.43
2022-08-11T14:16:52.501Z,22.54
2022-08-11T14:19:23.558Z,22.36
2022-08-11T14:22:08.305Z,22.06
2022-08-11T14:24:44.510Z,21.93
2022-08-11T14:28:30.354Z,21.81
2022-08-11T14:30:01.606Z,21.67
2022-08-11T14:32:28.657Z,21.98
2022-08-11T14:34:55.970Z,22.00
2022-08-11T14:37:25.783Z,21.02
2022-08-11T14:40:21.529Z,21.14
2022-08-11T14:43:07.556Z,21.71
2022-08-11T14:45:57.430Z,21.97
2022-08-11T14:48:26.996Z,21.83
2022-08-11T14:50:54.300Z,21.29
2022-08-11T14:53:23.194Z,20.94
2022-08-11T14:56:10.180Z,20.90
2022-08-11T14:58:39.769Z,20.61
2022-08-11T15:01:26.696Z,21.01
2022-08-11T15:04:34.124Z,20.65
2022-08-11T15:06:43.179Z,20.59
2022-08-11T15:09:10.278Z,20.34
2022-08-11T15:11:55.888Z,19.96
2022-08-11T15:14:42.269Z,19.95
2022-08-11T15:17:10.729Z,19.67
2022-08-11T15:20:00.968Z,19.75
2022-08-11T15:22:46.809Z,19.85
2022-08-11T15:25:14.036Z,19.42
2022-08-11T15:28:01.768Z,19.32
2022-08-11T15:30:49.073Z,19.23
2022-08-11T15:33:37.372Z,19.38
2022-08-11T15:36:27.104Z,19.77
2022-08-11T15:39:21.003Z,19.60
2022-08-11T15:42:32.379Z,19.77
2022-08-11T15:45:22.346Z,19.51
2022-08-11T15:48:00.667Z,20.13
2022-08-11T15:50:40.460Z,19.85
2022-08-11T15:53:20.056Z,19.95
2022-08-11T15:55:49.052Z,20.13
2022-08-11T15:58:37.914Z,20.05
2022-08-11T16:01:24.740Z,19.73
2022-08-11T16:04:14.185Z,19.31
2022-08-11T16:06:51.898Z,19.65
2022-08-11T16:09:39.727Z,19.54
2022-08-11T16:12:28.478Z,19.71
2022-08-11T16:15:20.733Z,19.77
2022-08-11T16:17:53.188Z,19.51
2022-08-11T16:20:27.104Z,19.80
2022-08-11T16:23:02.571Z,19.58
2022-08-11T16:27:01.315Z,19.54
2022-08-11T16:28:25.593Z,19.57
2022-08-11T16:30:54.260Z,19.47
2022-08-11T16:33:49.441Z,19.70
2022-08-11T16:36:32.092Z,19.66
2022-08-11T16:39:02.138Z,19.57
2022-08-11T16:41:52.500Z,19.75
2022-08-11T16:44:39.510Z,19.80
2022-08-11T16:47:11.233Z,19.49
2022-08-11T16:49:47.167Z,19.61
2022-08-11T16:52:22.107Z,19.77
2022-08-11T16:54:49.703Z,20.12
2022-08-11T16:57:43.929Z,19.31
2022-08-11T17:00:15.124Z,19.63
2022-08-11T17:03:12.153Z,19.34
2022-08-11T17:06:04.945Z,19.45
2022-08-11T17:09:26.305Z,19.56
2022-08-11T17:12:15.551Z,19.75
2022-08-11T17:14:50.285Z,19.51
2022-08-11T17:17:26.682Z,19.85
2022-08-11T17:20:41.983Z,19.98
2022-08-11T17:23:13.396Z,20.28
2022-08-11T17:26:03.525Z,20.01
2022-08-11T17:28:29.968Z,20.22
2022-08-11T17:31:18.512Z,20.41
2022-08-11T17:34:09.869Z,20.35
2022-08-11T17:36:41.568Z,20.26
2022-08-11T17:39:13.656Z,20.49
2022-08-11T17:42:00.187Z,20.32
2022-08-11T17:44:47.832Z,20.07
2022-08-11T17:47:35.146Z,20.17
2022-08-11T17:50:09.440Z,20.36
2022-08-11T17:53:05.636Z,20.47
2022-08-11T17:55:54.583Z,20.62
2022-08-11T17:58:42.014Z,20.35
2022-08-11T18:01:12.173Z,20.40
2022-08-11T18:03:42.033Z,20.41
2022-08-11T18:06:21.457Z,20.40
2022-08-11T18:09:33.677Z,20.61
2022-08-11T18:12:21.950Z,20.90
2022-08-11T18:15:13.145Z,20.99
2022-08-11T18:18:00.150Z,21.10
2022-08-11T18:20:46.677Z,21.36
2022-08-11T18:23:41.911Z,21.22
2022-08-11T18:26:38.770Z,21.75
2022-08-11T18:29:26.916Z,21.71
2022-08-11T18:32:20.798Z,21.86
2022-08-11T18:35:11.178Z,21.97
2022-08-11T18:38:02.755Z,22.25
2022-08-11T18:40:49.521Z,22.46
2022-08-11T18:43:40.348Z,23.02
2022-08-11T18:46:29.088Z,23.22
2022-08-11T18:50:02.353Z,23.40
2022-08-11T18:52:36.781Z,23.41
2022-08-11T18:55:26.976Z,23.79
2022-08-11T18:58:14.990Z,23.95
2022-08-11T19:01:04.481Z,24.29
2022-08-11T19:03:50.893Z,24.21
2022-08-11T19:06:42.443Z,24.53
2022-08-11T19:09:34.199Z,24.52
2022-08-11T19:12:23.345Z,24.68
2022-08-11T19:15:10.754Z,24.91
2022-08-11T19:18:01.641Z,25.04
2022-08-11T19:20:50.662Z,25.26
2022-08-11T19:23:46.766Z,25.42
2022-08-11T19:26:34.151Z,26.39
2022-08-11T19:30:04.833Z,26.18
2022-08-11T19:32:30.012Z,26.44
2022-08-11T19:35:18.079Z,27.49
2022-08-11T19:38:04.374Z,28.44
2022-08-11T19:40:51.617Z,28.45
2022-08-11T19:43:38.093Z,28.82
2022-08-11T19:46:24.881Z,29.23
2022-08-11T19:49:14.767Z,29.78
2022-08-11T19:52:02.805Z,30.60
2022-08-11T19:54:53.778Z,31.15
2022-08-11T19:57:43.208Z,31.68
2022-08-11T20:00:40.694Z,34.26
2022-08-11T20:03:30.091Z,32.42
2022-08-11T20:06:21.434Z,32.43
2022-08-11T20:09:09.151Z,32.96
2022-08-11T20:11:58.742Z,33.81
2022-08-11T20:14:50.281Z,35.39
2022-08-11T20:17:37.882Z,35.98
2022-08-11T20:20:26.548Z,35.44
2022-08-11T20:23:14.815Z,35.85
2022-08-11T20:26:14.128Z,36.32
2022-08-11T20:29:09.338Z,36.79
2022-08-11T20:31:56.458Z,36.29
2022-08-11T20:34:42.779Z,37.08
2022-08-11T20:37:30.577Z,37.84
2022-08-11T20:40:22.527Z,37.89
2022-08-11T20:43:09.671Z,38.05
2022-08-11T20:46:15.932Z,38.15
2022-08-11T20:49:04.090Z,38.73
2022-08-11T20:51:50.246Z,38.81
2022-08-11T20:54:43.874Z,38.71
2022-08-11T20:58:00.097Z,39.27
2022-08-11T21:00:44.141Z,39.16
2022-08-11T21:03:35.687Z,39.22
2022-08-11T21:06:31.619Z,39.18
2022-08-11T21:09:58.434Z,39.41
2022-08-11T21:12:30.230Z,39.91
2022-08-11T21:15:38.815Z,40.30
2022-08-11T21:18:28.452Z,40.91
2022-08-11T21:21:18.313Z,41.27
2022-08-11T21:24:07.676Z,41.47
2022-08-11T21:27:01.551Z,41.98
2022-08-11T21:29:51.825Z,42.35
2022-08-11T21:32:38.747Z,42.60
2022-08-11T21:35:26.720Z,42.61
2022-08-11T21:38:12.630Z,42.52
2022-08-11T21:41:00.889Z,42.64
2022-08-11T21:43:50.543Z,42.77
2022-08-11T21:46:39.917Z,43.02
2022-08-11T21:49:27.869Z,43.89
2022-08-11T21:52:13.556Z,44.12
2022-08-11T21:55:00.620Z,43.67
2022-08-11T21:57:48.159Z,43.63
2022-08-11T22:00:36.489Z,43.27
2022-08-11T22:03:23.686Z,42.96
2022-08-11T22:06:12.482Z,42.51
2022-08-11T22:08:58.370Z,42.25
2022-08-11T22:11:44.442Z,42.38
2022-08-11T22:14:29.770Z,42.25
2022-08-11T22:17:15.237Z,42.47
2022-08-11T22:20:01.341Z,42.46
2022-08-11T22:22:53.181Z,42.74
2022-08-11T22:25:54.255Z,42.96
2022-08-11T22:28:40.799Z,42.79
2022-08-11T22:31:27.270Z,45.05
2022-08-11T22:34:12.922Z,44.16
2022-08-11T22:37:00.753Z,43.46
2022-08-11T22:40:01.945Z,43.31
2022-08-11T22:42:51.096Z,43.75
2022-08-11T22:45:37.814Z,43.98
2022-08-11T22:48:25.342Z,43.93
2022-08-11T22:51:12.974Z,43.94
2022-08-11T22:53:59.885Z,44.15
2022-08-11T22:56:50.693Z,44.68
2022-08-11T22:59:38.486Z,44.83
2022-08-11T23:02:25.601Z,45.17
2022-08-11T23:05:12.310Z,45.14
2022-08-11T23:07:58.314Z,45.44
2022-08-11T23:10:45.788Z,45.75
2022-08-11T23:13:32.169Z,45.95
2022-08-11T23:16:18.635Z,46.06
2022-08-11T23:19:04.929Z,46.13
2022-08-11T23:21:50.993Z,46.14
2022-08-11T23:24:38.829Z,46.26
2022-08-11T23:27:27.256Z,46.46
2022-08-11T23:30:18.683Z,46.89
2022-08-11T23:33:17.460Z,47.11
2022-08-11T23:36:08.417Z,47.12
2022-08-11T23:38:55.268Z,47.42
2022-08-11T23:41:41.094Z,48.08
2022-08-11T23:44:27.713Z,48.42
2022-08-11T23:47:18.520Z,48.23
2022-08-11T23:50:06.181Z,48.97
2022-08-11T23:52:53.968Z,49.22
2022-08-11T23:55:40.292Z,49.09
2022-08-11T23:58:26.797Z,49.95
